KBPG/BPG METAR and TAF weather

Enter ICAO airport designator
Station Type Date Time Source
KBPG METAR 2022/06/27 18:35 UTC NOAA

KBPG 271835Z AUTO 06011KT 10SM CLR 27/16 A3029 RMK AO2 T02710159


Station Type Date Time Source
KBPG Decoded METAR 2022/06/27 18:35 UTC NOAA

Big Spring, Big Spring McMahon-Wrinkle Airport, TX, United States (KBPG) 32-12N 101-31W
Jun 27, 2022 - 02:35 PM EDT / 2022.06.27 1835 UTC
Wind: from the ENE (060 degrees) at 13 MPH (11 KT):0
Visibility: 10 mile(s):0
Sky conditions: clear
Temperature: 80.8 F (27.1 C)
Dew Point: 60.6 F (15.9 C)
Relative Humidity: 50%
Pressure (altimeter): 30.29 in. Hg (1025 hPa)
ob: KBPG 271835Z AUTO 06011KT 10SM CLR 27/16 A3029 RMK AO2 T02710159
cycle: 18

Station Type Date Time Source
KBPG TAF UTC NOAA

Error!

Example: see airport list